Boqueirao, Brazil
Current Conditions -  °F | °C
As of 8:00 PM on Saturday 22 Nov 2014 (Local Time) from SBKG Reporting Station
Scattered Clouds Scattered Clouds  
Wind Chill: 72°   Ceiling: Unl
Heat Index: 72°   Visibility: 6mi
Dew Point: 68°   Wind: 16mph
Humidity: 88%   Direction: 100°E
Pressure: 30"   Gusts: NA
Location:  7.48°S, 36.13°W
Report Text: SBKG 222300Z 10014KT 9999 SCT016 22/20 Q1016
Loading
Personal Weather Stations






























Interactive Weather Map New forecast layout! Learn more

10-Day Weather Forecast

Advertisements
Track Severe Weather on mobile